Time;durP1;ratioP1;P1;durP2;ratioP2;P2;SDS_P1;SDS_P2;PMS_P1;PMS_P2;Temp;Humidity;BMP_temperature;BMP_pressure;BME280_temperature;BME280_humidity;BME280_pressure;Samples;Min_cycle;Max_cycle;Signal;HPM_P1;HPM_P2
2023/05/31 07:01:54;;;;;;;1.63;1.52;;;19.20;99.90;22.60;102362.00;;;;6308956;22;20254;-78
2023/05/31 07:05:15;;;;;;;0.77;0.77;;;20.30;99.90;22.60;102394.00;;;;6309122;22;20156;-77
2023/05/31 07:08:04;;;;;;;2.65;2.45;;;20.80;99.90;21.50;102384.00;;;;6256317;22;20156;-80
2023/05/31 07:10:53;;;;;;;0.32;0.32;;;19.80;99.90;23.30;102373.00;;;;6256294;22;20160;-80
2023/05/31 07:13:27;;;;;;;1.10;0.65;;;20.10;99.90;24.00;102369.00;;;;6256394;22;20195;-77
2023/05/31 07:16:20;;;;;;;1.88;1.70;;;20.70;99.90;22.70;102395.00;;;;6282433;22;20137;-77
2023/05/31 07:19:12;;;;;;;0.15;0.15;;;20.40;99.90;24.50;102394.00;;;;6256369;22;20247;-76
2023/05/31 07:22:03;;;;;;;0.73;0.73;;;21.10;99.90;23.40;102395.00;;;;6282227;22;20153;-76
2023/05/31 07:25:15;;;;;;;1.35;1.27;;;21.00;99.90;21.30;102372.00;;;;6199366;22;20165;-76
2023/05/31 07:28:39;;;;;;;2.22;1.95;;;19.70;99.90;22.10;102353.00;;;;6241551;22;20171;-76
2023/05/31 07:31:34;;;;;;;1.73;1.50;;;19.90;99.90;23.10;102372.00;;;;6241956;22;20565;-76
2023/05/31 07:34:04;;;;;;;0.55;0.55;;;20.80;99.90;23.50;102326.00;;;;6260633;22;20141;-76
2023/05/31 07:36:30;;;;;;;1.67;1.58;;;20.80;99.90;23.80;102366.00;;;;6255565;22;20167;-76
2023/05/31 07:39:34;;;;;;;0.45;0.45;;;21.10;99.90;24.80;102371.00;;;;6281760;22;20535;-77
2023/05/31 07:42:12;;;;;;;1.15;1.00;;;21.60;99.90;24.40;102397.00;;;;6281248;22;20191;-76
2023/05/31 07:44:48;;;;;;;1.20;1.00;;;22.00;99.90;23.90;102399.00;;;;6256516;22;20162;-75
2023/05/31 07:47:29;;;;;;;2.58;1.65;;;21.40;99.90;26.00;102377.00;;;;6283302;22;20140;-76
2023/05/31 07:50:00;;;;;;;5.22;2.38;;;22.60;99.90;23.00;102418.00;;;;6255894;22;20248;-67
2023/05/31 07:52:31;;;;;;;1.20;1.20;;;21.30;99.90;24.80;102392.00;;;;6308695;22;20664;-66
2023/05/31 07:55:09;;;;;;;2.42;0.68;;;22.00;99.90;23.50;102402.00;;;;6308888;22;20143;-68
2023/05/31 07:57:44;;;;;;;2.17;1.45;;;21.60;99.90;23.70;102397.00;;;;6308977;22;20140;-66
2023/05/31 08:00:13;;;;;;;0.35;0.35;;;21.30;99.90;25.60;102396.00;;;;6276066;22;20176;-68
2023/05/31 08:02:45;;;;;;;6.70;3.08;;;22.00;99.90;23.20;102346.00;;;;6276618;22;20295;-73
2023/05/31 08:05:17;;;;;;;2.33;1.63;;;21.90;99.90;22.40;102352.00;;;;6274927;22;20138;-76
2023/05/31 08:07:48;;;;;;;1.77;1.65;;;21.40;99.90;22.20;102414.00;;;;6249851;22;20187;-75
2023/05/31 08:10:40;;;;;;;0.73;0.68;;;20.50;99.90;23.50;102398.00;;;;6276807;22;20145;-76
2023/05/31 08:13:23;;;;;;;2.40;1.50;;;21.10;99.90;22.80;102395.00;;;;6251571;22;20239;-76
2023/05/31 08:16:29;;;;;;;2.97;2.67;;;20.70;99.90;23.40;102389.00;;;;6276211;22;20141;-75
2023/05/31 08:19:09;;;;;;;2.10;1.85;;;21.20;99.90;25.10;102371.00;;;;6249884;22;20247;-75
2023/05/31 08:22:04;;;;;;;3.03;2.80;;;22.30;99.90;24.60;102391.00;;;;6249169;22;20164;-75
2023/05/31 08:24:44;;;;;;;0.73;0.73;;;22.10;99.90;24.40;102373.00;;;;6275903;22;20151;-78
2023/05/31 08:27:56;;;;;;;2.67;2.47;;;22.20;99.90;24.30;102398.00;;;;6248879;22;20584;-76
2023/05/31 08:31:03;;;;;;;4.38;2.05;;;22.20;99.90;24.20;102397.00;;;;6249779;22;20632;-75
2023/05/31 08:34:00;;;;;;;2.72;2.55;;;22.00;99.90;24.20;102399.00;;;;6272340;22;20164;-76
2023/05/31 08:36:52;;;;;;;2.67;2.45;;;21.90;99.90;23.80;102406.00;;;;6239390;22;20636;-76
2023/05/31 08:39:41;;;;;;;2.08;1.05;;;21.80;99.90;25.70;102375.00;;;;6250376;22;20161;-76
2023/05/31 08:43:02;;;;;;;5.78;2.30;;;22.50;99.90;24.10;102412.00;;;;6156743;23;20667;-76
2023/05/31 08:46:01;;;;;;;1.38;1.27;;;22.40;99.90;23.80;102405.00;;;;6156321;23;20229;-76
2023/05/31 08:49:13;;;;;;;0.40;0.40;;;22.10;99.90;25.00;102405.00;;;;6126721;23;20163;-75
2023/05/31 08:52:20;;;;;;;1.27;0.65;;;22.30;99.90;25.10;102388.00;;;;6158302;23;20155;-76
2023/05/31 08:55:11;;;;;;;2.67;1.65;;;23.00;99.90;26.30;102367.00;;;;6245291;22;20167;-76
2023/05/31 08:58:03;;;;;;;1.70;1.48;;;23.70;99.90;24.80;102395.00;;;;6275643;22;20165;-75
2023/05/31 09:00:53;;;;;;;0.55;0.52;;;22.70;99.90;26.00;102375.00;;;;6133491;23;20182;-75
2023/05/31 09:03:45;;;;;;;0.30;0.30;;;23.00;99.90;25.90;102383.00;;;;6115977;23;20539;-76
2023/05/31 09:06:37;;;;;;;6.32;3.42;;;23.50;99.90;24.70;102397.00;;;;6250871;22;20204;-75
2023/05/31 09:09:25;;;;;;;6.13;1.65;;;23.00;99.90;25.80;102377.00;;;;6275992;22;20207;-75
2023/05/31 09:12:26;;;;;;;3.15;2.72;;;23.40;99.90;25.90;102311.00;;;;6158550;23;20221;-76
2023/05/31 09:15:20;;;;;;;4.65;1.23;;;23.60;99.90;27.50;102300.00;;;;6127789;23;20166;-75
2023/05/31 09:18:20;;;;;;;4.85;2.28;;;24.20;99.90;25.30;102333.00;;;;6230702;22;20170;-76
2023/05/31 09:21:37;;;;;;;1.88;1.48;;;23.20;99.90;25.30;102383.00;;;;6250195;22;20165;-75
2023/05/31 09:24:22;;;;;;;3.42;2.70;;;23.30;99.90;25.60;102369.00;;;;6250270;22;20157;-76
2023/05/31 09:27:07;;;;;;;3.63;1.73;;;23.50;99.90;25.50;102300.00;;;;6275562;22;20214;-75
2023/05/31 09:29:59;;;;;;;1.52;1.15;;;23.30;99.90;25.20;102328.00;;;;6277061;22;20187;-75
2023/05/31 09:32:57;;;;;;;1.67;1.58;;;22.80;99.90;25.90;102303.00;;;;6232908;22;20164;-76
2023/05/31 09:36:01;;;;;;;1.55;1.00;;;23.30;99.90;26.10;102356.00;;;;6250091;22;20157;-76
2023/05/31 09:39:00;;;;;;;2.00;1.13;;;23.50;99.90;25.60;102357.00;;;;6269991;22;20584;-76
2023/05/31 09:42:13;;;;;;;0.20;0.20;;;23.70;99.90;27.90;102311.00;;;;6240356;22;20176;-76
2023/05/31 09:45:06;;;;;;;1.00;0.98;;;24.00;99.90;26.90;102308.00;;;;6250569;22;20230;-76
2023/05/31 09:48:02;;;;;;;1.83;1.55;;;24.30;99.90;25.60;102327.00;;;;6157668;23;20163;-76
2023/05/31 09:51:09;;;;;;;0.35;0.35;;;24.10;99.90;26.80;102315.00;;;;6125339;23;20163;-76
2023/05/31 09:54:11;;;;;;;2.30;1.42;;;24.20;99.90;26.70;102321.00;;;;6133453;23;20163;-75
2023/05/31 09:57:02;;;;;;;2.83;1.73;;;24.30;99.90;26.60;102308.00;;;;6158301;23;20182;-76
2023/05/31 09:59:32;;;;;;;0.80;0.55;;;24.60;99.90;27.10;102316.00;;;;6133456;23;20273;-75
2023/05/31 10:01:59;;;;;;;0.60;0.60;;;24.20;99.90;28.90;102263.00;;;;6133287;23;20277;-75
2023/05/31 10:04:57;;;;;;;0.40;0.38;;;25.00;99.90;29.10;102279.00;;;;6175317;22;20157;-75
2023/05/31 10:08:04;;;;;;;1.27;1.17;;;26.00;99.90;28.80;102289.00;;;;6275478;22;20149;-69
2023/05/31 10:10:56;;;;;;;1.60;1.15;;;26.10;99.90;30.20;102272.00;;;;6275393;22;20207;-69
2023/05/31 10:14:06;;;;;;;0.57;0.30;;;26.70;99.90;28.60;102294.00;;;;6259323;22;20615;-69
2023/05/31 10:17:08;;;;;;;3.05;2.25;;;25.60;99.90;27.00;102242.00;;;;6274742;22;20153;-74
2023/05/31 10:20:13;;;;;;;3.72;2.15;;;25.20;99.90;25.90;102328.00;;;;6270392;22;20160;-72
2023/05/31 10:34:03;;;;;;;1.05;1.05;;;24.50;99.90;26.90;102323.00;;;;5068029;28;20560;-75
2023/05/31 10:36:54;;;;;;;5.43;2.45;;;25.10;99.90;26.30;102324.00;;;;5049442;28;20234;-75
2023/05/31 10:39:54;;;;;;;0.20;0.20;;;24.60;99.90;28.10;102290.00;;;;5049217;28;20502;-75
2023/05/31 10:43:03;;;;;;;0.28;0.28;;;25.20;99.90;29.10;102270.00;;;;5010657;28;20199;-76
2023/05/31 10:45:50;;;;;;;2.60;1.63;;;25.70;99.90;27.90;102280.00;;;;5010597;28;20245;-75
2023/05/31 10:48:45;;;;;;;0.75;0.45;;;25.90;99.90;29.00;102268.00;;;;5008118;28;20194;-75
2023/05/31 10:51:50;;;;;;;0.10;0.10;;;25.80;99.90;28.40;102258.00;;;;4991193;28;20334;-76
2023/05/31 10:55:19;;;;;;;0.65;0.65;;;26.00;99.90;28.90;102277.00;;;;4991852;28;20199;-76
2023/05/31 10:58:32;;;;;;;2.42;1.58;;;26.30;99.90;28.10;102280.00;;;;4995664;28;20191;-76
2023/05/31 11:02:00;;;;;;;0.93;0.88;;;25.70;99.90;28.40;102262.00;;;;5036747;28;20273;-76
2023/05/31 11:04:54;;;;;;;1.85;1.65;;;25.90;99.90;27.30;102271.00;;;;5032047;28;20292;-75
2023/05/31 11:08:15;;;;;;;0.20;0.20;;;25.10;99.90;27.90;102239.00;;;;5022387;28;20203;-75
2023/05/31 11:11:50;;;;;;;1.70;1.25;;;26.30;99.90;27.50;102294.00;;;;5003803;28;20194;-75
2023/05/31 11:14:37;;;;;;;3.97;1.75;;;25.30;99.90;27.60;102304.00;;;;5025828;28;20223;-75
2023/05/31 11:17:15;;;;;;;3.38;2.05;;;25.60;99.90;28.50;102278.00;;;;5042227;28;20183;-75
2023/05/31 11:20:24;;;;;;;4.28;2.05;;;25.60;99.90;27.40;102289.00;;;;5046841;28;20198;-75
2023/05/31 11:23:38;;;;;;;0.77;0.55;;;25.70;99.90;28.80;102223.00;;;;5023636;28;20206;-75
2023/05/31 11:27:12;;;;;;;1.45;0.80;;;26.30;99.90;30.80;102271.00;;;;5037349;28;20181;-75
2023/05/31 11:30:14;;;;;;;3.20;1.75;;;27.80;99.90;30.70;102167.00;;;;5048013;28;20199;-76
2023/05/31 11:32:42;;;;;;;0.60;0.60;;;28.10;99.90;29.10;102171.00;;;;5048708;28;20567;-73
2023/05/31 11:35:16;;;;;;;0.63;0.55;;;27.00;99.90;28.30;102172.00;;;;5047947;28;20673;-67
2023/05/31 11:38:02;;;;;;;2.30;1.42;;;25.90;99.90;27.70;102223.00;;;;5047744;28;20240;-75
2023/05/31 11:40:49;;;;;;;0.20;0.20;;;26.00;99.90;29.40;102235.00;;;;5027055;28;20216;-75
2023/05/31 11:43:34;;;;;;;2.60;1.80;;;26.20;99.90;27.70;102239.00;;;;5041937;28;20198;-74
2023/05/31 11:46:21;;;;;;;0.85;0.75;;;25.80;99.90;28.70;102216.00;;;;5018573;28;20649;-74
2023/05/31 11:48:48;;;;;;;9.75;2.53;;;25.60;99.90;27.60;102220.00;;;;5026305;28;20191;-74
2023/05/31 11:51:19;;;;;;;4.68;1.73;;;25.50;99.90;26.70;102229.00;;;;5017332;28;20219;-77
2023/05/31 11:53:47;;;;;;;1.17;1.00;;;25.10;99.90;28.30;102230.00;;;;5063146;28;20265;-75
2023/05/31 11:56:36;;;;;;;1.50;1.40;;;25.20;99.90;27.20;102212.00;;;;5034437;28;20187;-78
2023/05/31 11:59:02;;;;;;;0.68;0.68;;;25.20;99.90;28.50;102215.00;;;;5050746;28;20211;-76
2023/05/31 12:01:37;;;;;;;0.50;0.50;;;25.30;99.90;28.00;102212.00;;;;5017826;28;20199;-77
2023/05/31 12:04:03;;;;;;;3.42;1.95;;;25.10;99.90;27.30;102204.00;;;;5031498;28;20209;-78
2023/05/31 12:06:32;;;;;;;0.40;0.40;;;25.30;99.90;28.20;102210.00;;;;5049941;28;20232;-78
2023/05/31 12:09:00;;;;;;;5.57;1.63;;;25.10;99.90;27.30;102156.00;;;;5015212;28;20195;-78
2023/05/31 12:11:47;;;;;;;4.43;2.08;;;24.90;99.90;27.90;102208.00;;;;5016992;28;20195;-76
2023/05/31 12:14:20;;;;;;;4.88;1.88;;;25.00;99.90;26.80;102200.00;;;;5029563;28;20203;-77
2023/05/31 12:17:05;;;;;;;0.10;0.10;;;25.00;99.90;29.20;102200.00;;;;5017202;28;20229;-76
2023/05/31 12:19:36;;;;;;;1.08;0.98;;;25.20;99.90;26.90;102161.00;;;;5017063;28;20566;-78
2023/05/31 12:22:02;;;;;;;1.60;1.35;;;25.00;99.90;26.60;102194.00;;;;5013345;28;20658;-77
2023/05/31 12:24:28;;;;;;;1.05;0.90;;;24.70;99.90;27.80;102131.00;;;;5061197;28;20608;-76
2023/05/31 12:26:55;;;;;;;7.30;1.35;;;24.70;99.90;28.40;102177.00;;;;5016951;28;20191;-77
2023/05/31 12:29:43;;;;;;;1.17;1.02;;;25.10;99.90;29.60;102176.00;;;;5033797;28;20257;-77
2023/05/31 12:32:28;;;;;;;3.15;0.93;;;25.70;99.90;27.90;102181.00;;;;5024116;28;20265;-77
2023/05/31 12:35:12;;;;;;;3.70;2.88;;;25.60;99.90;28.20;102182.00;;;;5014112;28;20187;-76
2023/05/31 12:37:40;;;;;;;1.75;1.65;;;25.50;99.90;28.40;102178.00;;;;5062913;28;20264;-76
2023/05/31 12:40:18;;;;;;;1.45;1.45;;;25.20;99.90;29.20;102159.00;;;;5016284;28;20179;-77
2023/05/31 12:42:46;;;;;;;2.88;1.88;;;25.40;99.90;26.80;102178.00;;;;5033094;28;20187;-77
2023/05/31 12:45:21;;;;;;;0.10;0.10;;;24.80;99.90;28.80;102136.00;;;;5016635;28;20187;-76
2023/05/31 12:47:59;;;;;;;0.30;0.30;;;24.90;99.90;27.60;102173.00;;;;5033077;28;20241;-77
2023/05/31 12:50:29;;;;;;;3.60;1.50;;;24.90;99.90;27.60;102163.00;;;;5033583;28;20218;-76
2023/05/31 12:52:57;;;;;;;1.60;1.52;;;25.00;99.90;27.70;102171.00;;;;5015515;28;20293;-75
2023/05/31 12:55:32;;;;;;;2.95;1.58;;;25.10;99.90;28.30;102164.00;;;;5032285;28;20290;-75
2023/05/31 12:58:16;;;;;;;2.08;0.75;;;25.20;99.90;28.60;102147.00;;;;5033064;28;20189;-75
2023/05/31 13:00:44;;;;;;;1.02;1.00;;;25.40;99.90;27.80;102157.00;;;;5028839;28;20183;-75
2023/05/31 13:03:30;;;;;;;0.40;0.40;;;25.30;99.90;29.20;102147.00;;;;5032847;28;20571;-74
2023/05/31 13:05:56;;;;;;;1.10;0.95;;;25.20;99.90;28.20;102136.00;;;;5024650;28;20269;-75
2023/05/31 13:08:39;;;;;;;0.47;0.47;;;25.40;99.90;28.60;102109.00;;;;5032379;28;20200;-75
2023/05/31 13:11:22;;;;;;;0.60;0.35;;;25.50;99.90;27.80;102106.00;;;;5014267;28;20216;-74
2023/05/31 13:14:26;;;;;;;0.70;0.63;;;25.40;99.90;28.70;102099.00;;;;5032944;28;20189;-75
2023/05/31 13:17:10;;;;;;;0.75;0.20;;;25.20;99.90;28.90;102164.00;;;;5018271;28;20183;-76
2023/05/31 13:19:39;;;;;;;2.38;1.27;;;25.40;99.90;28.10;102174.00;;;;5012762;28;20661;-75
2023/05/31 13:22:07;;;;;;;0.85;0.85;;;25.40;99.90;28.50;102168.00;;;;5063860;28;20526;-78
2023/05/31 13:24:56;;;;;;;2.05;1.15;;;25.40;99.90;28.00;102107.00;;;;5033779;28;20179;-75
2023/05/31 13:27:39;;;;;;;1.58;0.93;;;25.30;99.90;27.70;102109.00;;;;5016089;28;20191;-76
2023/05/31 13:30:44;;;;;;;0.55;0.50;;;25.10;99.90;28.40;102172.00;;;;5032665;28;20205;-74
2023/05/31 13:33:53;;;;;;;1.38;1.17;;;25.10;99.90;28.20;102180.00;;;;5012719;28;20573;-73
2023/05/31 13:37:22;;;;;;;0.38;0.38;;;25.20;99.90;28.40;102174.00;;;;5017916;28;20190;-74
2023/05/31 13:39:51;;;;;;;1.73;0.88;;;25.30;99.90;28.00;102187.00;;;;5043969;28;20759;-76
2023/05/31 13:42:20;;;;;;;0.93;0.80;;;25.20;99.90;27.40;102189.00;;;;5031617;28;20270;-76
2023/05/31 13:45:21;;;;;;;1.67;1.55;;;24.90;99.90;27.50;102177.00;;;;5033619;28;20224;-75
2023/05/31 13:52:13;;;;;;;0.55;0.55;;;25.20;99.90;28.50;102159.00;;;;5029930;28;20642;-75
2023/05/31 13:55:32;;;;;;;2.40;1.35;;;25.40;99.90;27.50;102159.00;;;;5012440;28;20179;-74
2023/05/31 13:58:44;;;;;;;2.83;1.05;;;25.30;99.90;27.90;102166.00;;;;5031972;28;20548;-75
2023/05/31 14:01:10;;;;;;;0.30;0.30;;;25.20;99.90;28.40;102156.00;;;;5050176;28;20625;-73
2023/05/31 14:03:40;;;;;;;0.30;0.30;;;25.20;99.90;28.00;102136.00;;;;5031993;28;20264;-74
2023/05/31 14:06:11;;;;;;;1.17;0.52;;;25.20;99.90;28.40;102157.00;;;;5031957;28;20195;-73
2023/05/31 14:09:35;;;;;;;0.90;0.63;;;25.50;99.90;28.20;102083.00;;;;5013678;28;20191;-72
2023/05/31 14:12:44;;;;;;;0.77;0.50;;;25.40;99.90;28.70;102130.00;;;;5025704;28;20202;-73
2023/05/31 14:15:56;;;;;;;0.13;0.13;;;25.40;99.90;28.80;102138.00;;;;5015471;28;20209;-72
2023/05/31 14:19:15;;;;;;;0.80;0.80;;;25.30;99.90;27.70;102136.00;;;;5014847;28;20193;-75
2023/05/31 14:22:06;;;;;;;4.82;1.15;;;25.40;99.90;27.60;102122.00;;;;5016657;28;20274;-74
2023/05/31 14:25:17;;;;;;;0.93;0.85;;;24.90;99.90;27.40;102142.00;;;;5014654;28;20190;-80
2023/05/31 14:28:18;;;;;;;0.20;0.20;;;25.00;99.90;28.00;102120.00;;;;5040509;28;20209;-78
2023/05/31 14:31:19;;;;;;;0.20;0.20;;;25.00;99.90;28.50;102099.00;;;;5030549;28;20194;-81
2023/05/31 14:33:53;;;;;;;0.20;0.20;;;25.40;99.90;29.30;102108.00;;;;5026661;28;20733;-78
2023/05/31 14:37:13;;;;;;;0.40;0.40;;;25.70;99.90;29.30;102133.00;;;;5030291;28;20621;-76
2023/05/31 14:40:04;;;;;;;9.23;0.93;;;25.80;99.90;27.90;102110.00;;;;5028222;28;20283;-75
2023/05/31 14:43:26;;;;;;;0.10;0.10;;;25.60;99.90;28.60;102116.00;;;;5047378;28;20199;-72
2023/05/31 14:46:33;;;;;;;0.20;0.20;;;25.50;99.90;28.00;102121.00;;;;5041388;28;20182;-74
2023/05/31 14:49:36;;;;;;;0.30;0.30;;;25.60;99.90;28.80;102096.00;;;;5048475;28;20181;-76
2023/05/31 14:52:40;;;;;;;0.10;0.10;;;25.40;99.90;28.70;102043.00;;;;5029400;28;20271;-77
2023/05/31 14:55:51;;;;;;;0.20;0.20;;;25.50;99.90;28.30;102097.00;;;;5044035;28;20183;-78
2023/05/31 14:58:28;;;;;;;0.55;0.55;;;25.50;99.90;27.70;102046.00;;;;5048471;28;20271;-77
2023/05/31 15:01:29;;;;;;;8.07;1.75;;;25.20;99.90;27.70;102108.00;;;;5045231;28;20193;-77
2023/05/31 15:04:14;;;;;;;0.68;0.68;;;25.20;99.90;27.80;102121.00;;;;5030776;28;20182;-77
2023/05/31 15:06:50;;;;;;;0.40;0.40;;;25.20;99.90;28.30;102102.00;;;;5031121;28;20182;-77
2023/05/31 15:09:37;;;;;;;0.10;0.10;;;25.30;99.90;29.30;102092.00;;;;5046647;28;20285;-76
2023/05/31 15:12:23;;;;;;;2.17;1.85;;;25.50;99.90;28.20;102099.00;;;;5030163;28;20227;-77
2023/05/31 15:15:24;;;;;;;0.20;0.20;;;25.50;99.90;28.30;102111.00;;;;5043891;28;20232;-76
2023/05/31 15:18:27;;;;;;;1.15;0.57;;;25.40;99.90;28.00;102099.00;;;;5022862;28;20720;-77
2023/05/31 15:21:24;;;;;;;0.40;0.40;;;25.60;99.90;28.10;102105.00;;;;5024957;28;20190;-78
2023/05/31 15:24:15;;;;;;;1.27;0.90;;;25.40;99.90;27.90;102103.00;;;;5026820;28;20715;-78
2023/05/31 15:27:06;;;;;;;1.65;1.00;;;25.60;99.90;29.00;102019.00;;;;5025822;28;20187;-78
2023/05/31 15:30:27;;;;;;;1.23;0.80;;;25.50;99.90;28.30;102044.00;;;;5013283;28;20287;-79
2023/05/31 15:33:16;;;;;;;3.53;1.10;;;25.60;99.90;27.90;102084.00;;;;5033960;28;20600;-76
2023/05/31 15:36:26;;;;;;;1.98;1.08;;;25.40;99.90;27.30;102109.00;;;;5033714;28;20198;-77
2023/05/31 15:39:32;;;;;;;1.92;0.40;;;25.10;99.90;27.90;102096.00;;;;5034529;28;20261;-78
2023/05/31 15:42:56;;;;;;;0.35;0.32;;;25.00;99.90;27.40;102097.00;;;;5024031;28;20208;-79
2023/05/31 15:46:14;;;;;;;0.10;0.10;;;25.10;99.90;28.40;102084.00;;;;5014740;28;20224;-77
2023/05/31 15:49:23;;;;;;;1.17;0.93;;;25.20;99.90;27.50;102098.00;;;;5049597;28;20274;-78
2023/05/31 15:51:56;;;;;;;1.15;0.68;;;25.10;99.90;27.80;102042.00;;;;5033583;28;20264;-78
2023/05/31 15:54:32;;;;;;;2.30;1.08;;;24.90;99.90;27.20;102098.00;;;;5057515;28;20196;-77
2023/05/31 15:57:28;;;;;;;0.90;0.90;;;25.00;99.90;27.10;102094.00;;;;5027526;28;20236;-77
2023/05/31 16:00:47;;;;;;;1.30;1.05;;;24.80;99.90;28.10;102056.00;;;;5027929;28;20687;-75
2023/05/31 16:03:55;;;;;;;0.63;0.63;;;25.00;99.90;28.20;102072.00;;;;5042301;28;20225;-78
2023/05/31 16:06:48;;;;;;;1.15;0.98;;;25.30;99.90;27.90;102074.00;;;;5025326;28;20186;-76
2023/05/31 16:09:53;;;;;;;0.45;0.45;;;25.20;99.90;28.80;102075.00;;;;5042008;28;20197;-76
2023/05/31 16:12:44;;;;;;;1.83;0.70;;;25.40;99.90;27.60;102070.00;;;;5042061;28;20229;-75
2023/05/31 16:15:45;;;;;;;1.75;1.42;;;25.10;99.90;27.80;102065.00;;;;5041883;28;20216;-76
2023/05/31 16:18:46;;;;;;;1.77;1.67;;;25.20;99.90;29.30;102066.00;;;;5042086;28;20216;-76
2023/05/31 16:22:05;;;;;;;0.20;0.20;;;25.40;99.90;29.00;102051.00;;;;5024930;28;20194;-75
2023/05/31 16:28:25;;;;;;;3.92;1.35;;;25.60;99.90;27.70;102072.00;;;;5042239;28;20648;-75
2023/05/31 16:31:17;;;;;;;0.65;0.65;;;25.30;99.90;26.70;102090.00;;;;5026365;28;20182;-74
2023/05/31 16:33:43;;;;;;;1.08;0.50;;;25.00;99.90;28.00;102067.00;;;;5025770;28;20197;-75
2023/05/31 16:36:44;;;;;;;0.85;0.85;;;24.80;99.90;27.60;102050.00;;;;5041351;28;20214;-75
2023/05/31 16:39:37;;;;;;;0.20;0.20;;;24.90;99.90;27.80;102060.00;;;;5043658;28;20348;-75
2023/05/31 16:42:42;;;;;;;0.60;0.60;;;24.90;99.90;27.50;102020.00;;;;5040554;28;20186;-78
2023/05/31 16:45:44;;;;;;;0.65;0.57;;;24.80;99.90;27.20;102078.00;;;;5041867;28;20324;-75
2023/05/31 16:48:52;;;;;;;0.75;0.70;;;24.80;99.90;27.20;102028.00;;;;5056726;28;20283;-76
2023/05/31 16:51:40;;;;;;;0.40;0.40;;;24.60;99.90;26.90;102106.00;;;;5017782;28;20207;-75
2023/05/31 16:54:26;;;;;;;0.80;0.80;;;24.60;99.90;27.00;102116.00;;;;5033761;28;20316;-76
2023/05/31 16:57:17;;;;;;;3.40;2.33;;;24.40;99.90;27.10;102127.00;;;;5033469;28;20537;-76
2023/05/31 17:00:19;;;;;;;4.75;1.95;;;24.30;99.90;26.90;102062.00;;;;5005196;28;20202;-76
2023/05/31 17:02:57;;;;;;;3.47;2.35;;;24.40;99.90;26.50;102136.00;;;;5028372;28;20183;-76
2023/05/31 17:05:45;;;;;;;1.20;1.10;;;24.20;99.90;27.20;102133.00;;;;5017201;28;20183;-77
2023/05/31 17:12:13;;;;;;;5.43;2.25;;;24.20;99.90;27.00;102143.00;;;;5027901;28;20226;-77
2023/05/31 17:14:39;;;;;;;4.55;2.38;;;24.30;99.90;26.70;102144.00;;;;5033260;28;20649;-76
2023/05/31 17:17:18;;;;;;;2.58;1.50;;;24.10;99.90;26.70;102145.00;;;;5034016;28;20186;-76
2023/05/31 17:19:46;;;;;;;2.33;0.45;;;24.10;99.90;26.90;102154.00;;;;5016987;28;20194;-76
2023/05/31 17:22:23;;;;;;;2.13;1.90;;;24.00;99.90;26.50;102162.00;;;;5033281;28;20179;-76
2023/05/31 17:24:57;;;;;;;1.38;1.27;;;23.90;99.90;26.10;102144.00;;;;5032885;28;20273;-76
2023/05/31 17:28:29;;;;;;;2.65;1.42;;;23.70;99.90;26.50;102154.00;;;;5033130;28;20193;-76
2023/05/31 17:31:35;;;;;;;0.75;0.75;;;23.70;99.90;26.10;102105.00;;;;5027498;28;20178;-76
2023/05/31 17:34:46;;;;;;;3.65;1.40;;;23.50;99.90;26.40;102103.00;;;;5058305;28;20194;-74
2023/05/31 17:37:15;;;;;;;3.08;0.75;;;23.50;99.90;26.70;102147.00;;;;5034266;28;20186;-75
2023/05/31 17:40:18;;;;;;;0.35;0.35;;;23.70;99.90;26.20;102159.00;;;;5034817;28;20176;-75
2023/05/31 17:42:50;;;;;;;1.25;1.15;;;23.60;99.90;25.90;102179.00;;;;5031775;28;20273;-76
2023/05/31 17:45:20;;;;;;;3.55;1.05;;;23.40;99.90;26.10;102171.00;;;;5032277;28;20175;-75
2023/05/31 17:48:21;;;;;;;1.40;1.30;;;23.40;99.90;26.30;102161.00;;;;5032655;28;20190;-75
2023/05/31 17:51:25;;;;;;;4.72;2.05;;;23.30;99.90;26.90;102144.00;;;;5005755;28;20286;-76
2023/05/31 17:54:11;;;;;;;5.00;1.73;;;23.70;99.90;26.20;102157.00;;;;5021494;28;20744;-75
2023/05/31 17:57:17;;;;;;;2.05;1.63;;;23.30;99.90;26.00;102157.00;;;;5016132;28;20853;-76
2023/05/31 18:00:21;;;;;;;1.33;1.20;;;23.30;99.90;25.70;102165.00;;;;5029294;28;20638;-76
2023/05/31 18:03:36;;;;;;;0.80;0.80;;;23.30;99.90;25.30;102164.00;;;;5031757;28;20182;-76
2023/05/31 18:06:54;;;;;;;1.02;1.00;;;23.00;99.90;25.70;102085.00;;;;5048275;28;20278;-76
2023/05/31 18:10:00;;;;;;;2.53;1.85;;;23.00;99.90;26.00;102138.00;;;;5032101;28;20183;-76
2023/05/31 18:16:49;;;;;;;2.53;1.90;;;23.10;99.90;25.00;102111.00;;;;5021493;28;20220;-77
2023/05/31 18:19:58;;;;;;;0.52;0.52;;;22.90;99.90;25.40;102085.00;;;;5050537;28;20199;-77
2023/05/31 18:22:38;;;;;;;4.65;1.33;;;22.90;99.90;25.70;102087.00;;;;5011486;28;20204;-76
2023/05/31 18:25:41;;;;;;;4.50;1.77;;;22.80;99.90;25.30;102087.00;;;;5039429;28;20551;-76
2023/05/31 18:28:38;;;;;;;8.38;1.55;;;22.80;99.90;25.40;102074.00;;;;5031934;28;20273;-76
2023/05/31 18:31:07;;;;;;;1.45;0.65;;;22.80;99.90;25.20;102074.00;;;;5014086;28;20191;-76
2023/05/31 18:34:10;;;;;;;3.47;1.05;;;22.70;99.90;25.00;101999.00;;;;5031240;28;20187;-77
2023/05/31 18:36:56;;;;;;;0.52;0.52;;;22.70;99.90;25.20;102039.00;;;;5025446;28;20221;-77
2023/05/31 18:40:15;;;;;;;2.53;2.20;;;22.60;99.90;25.60;102029.00;;;;5063296;28;20202;-77
2023/05/31 18:43:11;;;;;;;4.68;2.13;;;22.50;99.90;24.70;102028.00;;;;5009593;28;20199;-76
2023/05/31 18:45:40;;;;;;;0.47;0.47;;;22.40;99.90;25.20;102033.00;;;;5040488;28;20546;-76
2023/05/31 18:48:33;;;;;;;0.52;0.52;;;22.40;99.90;25.60;102046.00;;;;5031333;28;20175;-76
2023/05/31 18:51:07;;;;;;;1.52;1.27;;;22.60;99.90;24.70;102039.00;;;;5047277;28;20190;-76
2023/05/31 18:53:44;;;;;;;0.52;0.52;;;22.30;99.90;24.80;102018.00;;;;5032385;28;20191;-76
2023/05/31 18:56:41;;;;;;;17.52;1.10;;;22.20;99.90;24.40;102013.00;;;;5017148;28;20195;-75
2023/05/31 18:59:35;;;;;;;1.65;1.45;;;22.00;99.90;23.80;102000.00;;;;5035797;28;20514;-76
2023/05/31 19:02:17;;;;;;;1.25;1.15;;;21.90;99.90;23.80;102007.00;;;;5024624;28;20203;-75
2023/05/31 19:04:51;;;;;;;7.75;2.45;;;21.80;99.90;24.00;101985.00;;;;5033775;28;20186;-76
2023/05/31 19:07:34;;;;;;;1.88;0.80;;;21.70;99.90;24.10;101994.00;;;;5016092;28;20328;-75
2023/05/31 19:10:30;;;;;;;0.98;0.98;;;21.60;99.90;24.10;101927.00;;;;5050325;28;20193;-76
2023/05/31 19:13:19;;;;;;;0.85;0.85;;;21.70;99.90;23.80;101985.00;;;;5050542;28;20207;-75
2023/05/31 19:16:30;;;;;;;1.10;0.90;;;21.60;99.90;23.50;101979.00;;;;5024814;28;20248;-75
2023/05/31 19:18:57;;;;;;;0.88;0.88;;;21.50;99.90;23.90;102000.00;;;;5033548;28;20565;-75
2023/05/31 19:21:29;;;;;;;0.77;0.75;;;21.50;99.90;23.70;102000.00;;;;5018252;28;20230;-76
2023/05/31 19:24:33;;;;;;;1.83;1.52;;;21.40;99.90;23.60;101988.00;;;;5035062;28;20194;-75
2023/05/31 19:27:34;;;;;;;1.75;1.52;;;21.30;99.90;23.40;101988.00;;;;5031472;28;20207;-75
2023/05/31 19:30:03;;;;;;;0.40;0.40;;;21.20;99.90;23.40;102003.00;;;;5025708;28;20550;-75
2023/05/31 19:33:18;;;;;;;0.55;0.55;;;21.20;99.90;23.40;102004.00;;;;5029505;28;20572;-76
2023/05/31 19:36:27;;;;;;;0.20;0.20;;;21.10;99.90;23.60;102004.00;;;;5020636;28;20221;-75
2023/05/31 19:39:41;;;;;;;0.35;0.35;;;21.00;99.90;23.80;101990.00;;;;5035715;28;20183;-75
2023/05/31 19:43:02;;;;;;;1.15;1.15;;;21.10;99.90;24.20;101946.00;;;;5029000;28;20214;-75
2023/05/31 19:46:20;;;;;;;0.82;0.82;;;21.20;99.90;23.70;101904.00;;;;5045933;28;20202;-75
2023/05/31 19:49:27;;;;;;;1.10;0.77;;;21.10;99.90;22.90;101992.00;;;;5017381;28;20190;-75
2023/05/31 19:52:31;;;;;;;2.15;1.83;;;20.70;99.90;22.90;101981.00;;;;5029442;28;20206;-75
2023/05/31 19:55:26;;;;;;;0.60;0.60;;;20.60;99.90;22.70;101985.00;;;;5048153;28;20277;-75
2023/05/31 19:58:48;;;;;;;2.88;2.70;;;20.30;99.90;22.40;101982.00;;;;5034554;28;20187;-74
2023/05/31 20:01:55;;;;;;;0.85;0.85;;;20.30;99.90;22.50;101999.00;;;;5028425;28;20193;-75
2023/05/31 20:04:59;;;;;;;2.80;2.70;;;20.20;99.90;22.80;102012.00;;;;5026110;28;20190;-74